sensor_id;sensor_type;location;lat;lon;timestamp;pressure;altitude;pressure_sealevel;temperature;humidity
62418;BME280;48456;54.242;10.280;2023-05-24T00:01:54;101690.38;;;9.39;100.00
62418;BME280;48456;54.242;10.280;2023-05-24T00:04:22;101685.13;;;9.40;100.00
62418;BME280;48456;54.242;10.280;2023-05-24T00:06:50;101682.50;;;9.40;100.00
62418;BME280;48456;54.242;10.280;2023-05-24T00:09:20;101681.63;;;9.41;100.00
62418;BME280;48456;54.242;10.280;2023-05-24T00:11:46;101684.25;;;9.41;100.00
62418;BME280;48456;54.242;10.280;2023-05-24T00:14:13;101680.75;;;9.41;100.00
62418;BME280;48456;54.242;10.280;2023-05-24T00:16:39;101680.75;;;9.41;100.00
62418;BME280;48456;54.242;10.280;2023-05-24T00:19:05;101681.66;;;9.43;100.00
62418;BME280;48456;54.242;10.280;2023-05-24T00:21:32;101678.13;;;9.42;100.00
62418;BME280;48456;54.242;10.280;2023-05-24T00:24:01;101681.66;;;9.43;100.00
62418;BME280;48456;54.242;10.280;2023-05-24T00:26:28;101674.59;;;9.42;100.00
62418;BME280;48456;54.242;10.280;2023-05-24T00:28:54;101679.91;;;9.43;100.00
62418;BME280;48456;54.242;10.280;2023-05-24T00:31:21;101682.53;;;9.42;100.00
62418;BME280;48456;54.242;10.280;2023-05-24T00:33:47;101676.38;;;9.43;100.00
62418;BME280;48456;54.242;10.280;2023-05-24T00:36:13;101676.34;;;9.41;100.00
62418;BME280;48456;54.242;10.280;2023-05-24T00:38:40;101672.75;;;9.36;100.00
62418;BME280;48456;54.242;10.280;2023-05-24T00:41:06;101670.16;;;9.39;100.00
62418;BME280;48456;54.242;10.280;2023-05-24T00:43:33;101661.34;;;9.39;100.00
62418;BME280;48456;54.242;10.280;2023-05-24T00:46:13;101663.97;;;9.39;100.00
62418;BME280;48456;54.242;10.280;2023-05-24T00:48:41;101664.00;;;9.40;100.00
62418;BME280;48456;54.242;10.280;2023-05-24T00:51:08;101656.94;;;9.38;100.00
62418;BME280;48456;54.242;10.280;2023-05-24T00:53:35;101664.91;;;9.41;100.00
62418;BME280;48456;54.242;10.280;2023-05-24T00:56:02;101658.69;;;9.39;100.00
62418;BME280;48456;54.242;10.280;2023-05-24T00:58:29;101662.25;;;9.39;100.00
62418;BME280;48456;54.242;10.280;2023-05-24T01:01:00;101659.56;;;9.38;100.00
62418;BME280;48456;54.242;10.280;2023-05-24T01:03:27;101662.25;;;9.39;100.00
62418;BME280;48456;54.242;10.280;2023-05-24T01:05:58;101660.44;;;9.36;100.00
62418;BME280;48456;54.242;10.280;2023-05-24T01:08:32;101663.97;;;9.39;100.00
62418;BME280;48456;54.242;10.280;2023-05-24T01:11:28;101662.25;;;9.39;100.00
62418;BME280;48456;54.242;10.280;2023-05-24T01:14:10;101660.44;;;9.36;100.00
62418;BME280;48456;54.242;10.280;2023-05-24T01:19:57;101659.56;;;9.38;100.00
62418;BME280;48456;54.242;10.280;2023-05-24T01:22:36;101671.91;;;9.39;100.00
62418;BME280;48456;54.242;10.280;2023-05-24T01:27:49;101671.06;;;9.41;100.00
62418;BME280;48456;54.242;10.280;2023-05-24T01:30:16;101667.56;;;9.42;100.00
62418;BME280;48456;54.242;10.280;2023-05-24T01:32:42;101676.38;;;9.43;100.00
62418;BME280;48456;54.242;10.280;2023-05-24T01:35:09;101671.91;;;9.39;100.00
62418;BME280;48456;54.242;10.280;2023-05-24T01:37:36;101666.63;;;9.39;100.00
62418;BME280;48456;54.242;10.280;2023-05-24T01:40:02;101675.41;;;9.38;100.00
62418;BME280;48456;54.242;10.280;2023-05-24T01:50:10;101672.69;;;9.31;100.00
62418;BME280;48456;54.242;10.280;2023-05-24T01:52:39;101678.88;;;9.33;100.00
62418;BME280;48456;54.242;10.280;2023-05-24T01:55:07;101678.84;;;9.32;100.00
62418;BME280;48456;54.242;10.280;2023-05-24T01:57:34;101682.38;;;9.32;100.00
62418;BME280;48456;54.242;10.280;2023-05-24T02:00:03;101680.59;;;9.30;100.00
62418;BME280;48456;54.242;10.280;2023-05-24T02:02:30;101676.22;;;9.32;100.00
62418;BME280;48456;54.242;10.280;2023-05-24T02:04:56;101675.34;;;9.33;100.00
62418;BME280;48456;54.242;10.280;2023-05-24T02:07:24;101675.34;;;9.33;100.00
62418;BME280;48456;54.242;10.280;2023-05-24T02:09:51;101675.34;;;9.33;100.00
62418;BME280;48456;54.242;10.280;2023-05-24T02:12:18;101675.41;;;9.36;100.00
62418;BME280;48456;54.242;10.280;2023-05-24T02:14:44;101670.06;;;9.33;100.00
62418;BME280;48456;54.242;10.280;2023-05-24T02:17:11;101675.34;;;9.33;100.00
62418;BME280;48456;54.242;10.280;2023-05-24T02:19:37;101678.84;;;9.32;100.00
62418;BME280;48456;54.242;10.280;2023-05-24T02:22:03;101685.03;;;9.32;100.00
62418;BME280;48456;54.242;10.280;2023-05-24T02:24:30;101683.28;;;9.34;100.00
62418;BME280;48456;54.242;10.280;2023-05-24T02:26:56;101677.97;;;9.33;100.00
62418;BME280;48456;54.242;10.280;2023-05-24T02:29:23;101683.25;;;9.31;100.00
62418;BME280;48456;54.242;10.280;2023-05-24T02:31:49;101681.47;;;9.30;100.00
62418;BME280;48456;54.242;10.280;2023-05-24T02:34:20;101681.47;;;9.30;100.00
62418;BME280;48456;54.242;10.280;2023-05-24T02:36:46;101684.19;;;9.35;100.00
62418;BME280;48456;54.242;10.280;2023-05-24T02:39:12;101682.44;;;9.35;100.00
62418;BME280;48456;54.242;10.280;2023-05-24T02:41:39;101675.41;;;9.38;100.00
62418;BME280;48456;54.242;10.280;2023-05-24T02:44:06;101689.53;;;9.38;100.00
62418;BME280;48456;54.242;10.280;2023-05-24T02:46:32;101681.56;;;9.36;100.00
62418;BME280;48456;54.242;10.280;2023-05-24T02:48:59;101688.56;;;9.34;100.00
62418;BME280;48456;54.242;10.280;2023-05-24T02:51:27;101690.31;;;9.32;100.00
62418;BME280;48456;54.242;10.280;2023-05-24T02:53:53;101698.22;;;9.32;100.00
62418;BME280;48456;54.242;10.280;2023-05-24T02:56:20;101698.25;;;9.34;100.00
62418;BME280;48456;54.242;10.280;2023-05-24T02:58:47;101700.00;;;9.33;100.00
62418;BME280;48456;54.242;10.280;2023-05-24T03:01:13;101698.19;;;9.29;100.00
62418;BME280;48456;54.242;10.280;2023-05-24T03:03:40;101707.84;;;9.27;100.00
62418;BME280;48456;54.242;10.280;2023-05-24T03:06:07;101702.56;;;9.27;100.00
62418;BME280;48456;54.242;10.280;2023-05-24T03:08:33;101714.88;;;9.27;100.00
62418;BME280;48456;54.242;10.280;2023-05-24T03:11:00;101708.69;;;9.25;100.00
62418;BME280;48456;54.242;10.280;2023-05-24T03:13:26;101713.03;;;9.22;100.00
62418;BME280;48456;54.242;10.280;2023-05-24T03:15:52;101704.22;;;9.22;100.00
62418;BME280;48456;54.242;10.280;2023-05-24T03:18:19;101720.16;;;9.27;100.00
62418;BME280;48456;54.242;10.280;2023-05-24T03:20:45;101715.69;;;9.22;100.00
62418;BME280;48456;54.242;10.280;2023-05-24T03:23:12;101708.69;;;9.25;100.00
62418;BME280;48456;54.242;10.280;2023-05-24T03:25:40;101708.69;;;9.25;100.00
62418;BME280;48456;54.242;10.280;2023-05-24T03:28:06;101706.91;;;9.25;100.00
62418;BME280;48456;54.242;10.280;2023-05-24T03:30:32;101712.19;;;9.25;100.00
62418;BME280;48456;54.242;10.280;2023-05-24T03:32:59;101716.66;;;9.29;100.00
62418;BME280;48456;54.242;10.280;2023-05-24T03:35:25;101719.34;;;9.31;100.00
62418;BME280;48456;54.242;10.280;2023-05-24T03:37:52;101712.31;;;9.31;100.00
62418;BME280;48456;54.242;10.280;2023-05-24T03:40:18;101717.59;;;9.31;100.00
62418;BME280;48456;54.242;10.280;2023-05-24T03:42:44;101720.22;;;9.33;100.00
62418;BME280;48456;54.242;10.280;2023-05-24T03:45:11;101720.25;;;9.34;100.00
62418;BME280;48456;54.242;10.280;2023-05-24T03:47:37;101715.88;;;9.35;100.00
62418;BME280;48456;54.242;10.280;2023-05-24T03:50:04;101716.78;;;9.37;100.00
62418;BME280;48456;54.242;10.280;2023-05-24T03:52:30;101721.22;;;9.41;100.00
62418;BME280;48456;54.242;10.280;2023-05-24T03:54:57;101724.78;;;9.42;100.00
62418;BME280;48456;54.242;10.280;2023-05-24T03:57:23;101721.25;;;9.43;100.00
62418;BME280;48456;54.242;10.280;2023-05-24T03:59:50;101723.91;;;9.43;100.00
62418;BME280;48456;54.242;10.280;2023-05-24T04:02:16;101726.53;;;9.43;100.00
62418;BME280;48456;54.242;10.280;2023-05-24T04:04:43;101733.63;;;9.45;100.00
62418;BME280;48456;54.242;10.280;2023-05-24T04:07:09;101730.13;;;9.46;100.00
62418;BME280;48456;54.242;10.280;2023-05-24T04:09:37;101723.94;;;9.44;100.00
62418;BME280;48456;54.242;10.280;2023-05-24T04:12:03;101725.72;;;9.47;100.00
62418;BME280;48456;54.242;10.280;2023-05-24T04:14:29;101727.50;;;9.46;100.00
62418;BME280;48456;54.242;10.280;2023-05-24T04:16:56;101731.03;;;9.48;100.00
62418;BME280;48456;54.242;10.280;2023-05-24T04:19:22;101737.22;;;9.49;100.00
62418;BME280;48456;54.242;10.280;2023-05-24T04:21:49;101733.72;;;9.52;100.00
62418;BME280;48456;54.242;10.280;2023-05-24T04:24:16;101732.88;;;9.54;100.00
62418;BME280;48456;54.242;10.280;2023-05-24T04:26:42;101729.41;;;9.57;100.00
62418;BME280;48456;54.242;10.280;2023-05-24T04:29:09;101733.03;;;9.64;100.00
62418;BME280;48456;54.242;10.280;2023-05-24T04:31:36;101742.72;;;9.65;100.00
62418;BME280;48456;54.242;10.280;2023-05-24T04:34:02;101748.88;;;9.64;100.00
62418;BME280;48456;54.242;10.280;2023-05-24T04:36:29;101750.66;;;9.66;100.00
62418;BME280;48456;54.242;10.280;2023-05-24T04:38:56;101746.25;;;9.65;100.00
62418;BME280;48456;54.242;10.280;2023-05-24T04:41:28;101750.72;;;9.69;100.00
62418;BME280;48456;54.242;10.280;2023-05-24T04:43:57;101749.03;;;9.74;100.00
62418;BME280;48456;54.242;10.280;2023-05-24T04:46:25;101754.41;;;9.81;100.00
62418;BME280;48456;54.242;10.280;2023-05-24T04:48:52;101760.72;;;9.92;100.00
62418;BME280;48456;54.242;10.280;2023-05-24T04:51:22;101748.53;;;10.02;100.00
62418;BME280;48456;54.242;10.280;2023-05-24T04:53:48;101750.38;;;10.09;100.00
62418;BME280;48456;54.242;10.280;2023-05-24T04:56:15;101749.59;;;10.15;100.00
62418;BME280;48456;54.242;10.280;2023-05-24T04:58:42;101741.72;;;10.21;100.00
62418;BME280;48456;54.242;10.280;2023-05-24T05:01:08;101752.28;;;10.18;100.00
62418;BME280;48456;54.242;10.280;2023-05-24T05:03:35;101749.63;;;10.18;100.00
62418;BME280;48456;54.242;10.280;2023-05-24T05:06:01;101748.78;;;10.21;100.00
62418;BME280;48456;54.242;10.280;2023-05-24T05:08:28;101751.41;;;10.21;100.00
62418;BME280;48456;54.242;10.280;2023-05-24T05:10:54;101754.97;;;10.24;100.00
62418;BME280;48456;54.242;10.280;2023-05-24T05:13:21;101765.59;;;10.27;100.00
62418;BME280;48456;54.242;10.280;2023-05-24T05:15:48;101764.75;;;10.30;100.00
62418;BME280;48456;54.242;10.280;2023-05-24T05:18:14;101760.34;;;10.29;100.00
62418;BME280;48456;54.242;10.280;2023-05-24T05:20:41;101769.09;;;10.25;100.00
62418;BME280;48456;54.242;10.280;2023-05-24T05:23:08;101771.75;;;10.25;100.00
62418;BME280;48456;54.242;10.280;2023-05-24T05:25:34;101770.81;;;10.23;100.00
62418;BME280;48456;54.242;10.280;2023-05-24T05:28:01;101773.47;;;10.23;100.00
62418;BME280;48456;54.242;10.280;2023-05-24T05:30:27;101775.22;;;10.24;100.00
62418;BME280;48456;54.242;10.280;2023-05-24T05:32:54;101770.78;;;10.21;100.00
62418;BME280;48456;54.242;10.280;2023-05-24T05:35:20;101776.19;;;10.29;100.00
62418;BME280;48456;54.242;10.280;2023-05-24T05:37:47;101778.03;;;10.36;100.00
62418;BME280;48456;54.242;10.280;2023-05-24T05:40:13;101763.22;;;10.48;100.00
62418;BME280;48456;54.242;10.280;2023-05-24T05:42:40;101768.63;;;10.57;100.00
62418;BME280;48456;54.242;10.280;2023-05-24T05:45:06;101766.06;;;10.63;100.00
62418;BME280;48456;54.242;10.280;2023-05-24T05:47:33;101774.00;;;10.66;100.00
62418;BME280;48456;54.242;10.280;2023-05-24T05:50:00;101775.81;;;10.72;100.00
62418;BME280;48456;54.242;10.280;2023-05-24T05:52:28;101777.72;;;10.83;100.00
62418;BME280;48456;54.242;10.280;2023-05-24T05:54:54;101781.28;;;10.88;100.00
62418;BME280;48456;54.242;10.280;2023-05-24T05:57:21;101783.97;;;10.92;100.00
62418;BME280;48456;54.242;10.280;2023-05-24T05:59:49;101783.13;;;10.97;100.00
62418;BME280;48456;54.242;10.280;2023-05-24T06:02:16;101787.69;;;11.12;100.00
62418;BME280;48456;54.242;10.280;2023-05-24T06:04:44;101791.25;;;11.14;100.00
62418;BME280;48456;54.242;10.280;2023-05-24T06:07:11;101792.13;;;11.16;100.00
62418;BME280;48456;54.242;10.280;2023-05-24T06:09:37;101793.88;;;11.12;100.00
62418;BME280;48456;54.242;10.280;2023-05-24T06:12:04;101807.19;;;11.18;100.00
62418;BME280;48456;54.242;10.280;2023-05-24T06:14:30;101800.13;;;11.19;100.00
62418;BME280;48456;54.242;10.280;2023-05-24T06:16:57;101810.81;;;11.31;100.00
62418;BME280;48456;54.242;10.280;2023-05-24T06:19:25;101807.41;;;11.42;100.00
62418;BME280;48456;54.242;10.280;2023-05-24T06:21:52;101807.38;;;11.40;100.00
62418;BME280;48456;54.242;10.280;2023-05-24T06:24:18;101817.22;;;11.57;100.00
62418;BME280;48456;54.242;10.280;2023-05-24T06:26:48;101813.75;;;11.66;100.00
62418;BME280;48456;54.242;10.280;2023-05-24T06:29:15;101819.97;;;11.73;100.00
62418;BME280;48456;54.242;10.280;2023-05-24T06:31:44;101816.41;;;11.67;100.00
62418;BME280;48456;54.242;10.280;2023-05-24T06:34:13;101821.75;;;11.70;100.00
62418;BME280;48456;54.242;10.280;2023-05-24T06:36:42;101818.25;;;11.76;100.00
62418;BME280;48456;54.242;10.280;2023-05-24T06:39:09;101827.16;;;11.85;100.00
62418;BME280;48456;54.242;10.280;2023-05-24T06:41:36;101824.56;;;11.94;100.00
62418;BME280;48456;54.242;10.280;2023-05-24T06:44:02;101826.44;;;12.14;100.00
62418;BME280;48456;54.242;10.280;2023-05-24T06:46:29;101823.00;;;12.29;100.00
62418;BME280;48456;54.242;10.280;2023-05-24T06:48:55;101831.03;;;12.40;100.00
62418;BME280;48456;54.242;10.280;2023-05-24T06:51:22;101831.94;;;12.46;100.00
62418;BME280;48456;54.242;10.280;2023-05-24T06:53:49;101835.50;;;12.50;100.00
62418;BME280;48456;54.242;10.280;2023-05-24T06:56:16;101836.41;;;12.60;100.00
62418;BME280;48456;54.242;10.280;2023-05-24T06:58:42;101831.13;;;12.69;100.00
62418;BME280;48456;54.242;10.280;2023-05-24T07:01:09;101853.31;;;12.79;100.00
62418;BME280;48456;54.242;10.280;2023-05-24T07:03:36;101851.53;;;12.78;100.00
62418;BME280;48456;54.242;10.280;2023-05-24T07:06:02;101853.31;;;12.85;100.00
62418;BME280;48456;54.242;10.280;2023-05-24T07:08:29;101855.09;;;12.91;100.00
62418;BME280;48456;54.242;10.280;2023-05-24T07:10:55;101853.38;;;13.03;100.00
62418;BME280;48456;54.242;10.280;2023-05-24T07:13:22;101857.78;;;12.96;100.00
62418;BME280;48456;54.242;10.280;2023-05-24T07:15:48;101858.66;;;13.01;100.00
62418;BME280;48456;54.242;10.280;2023-05-24T07:18:15;101857.81;;;13.07;100.00
62418;BME280;48456;54.242;10.280;2023-05-24T07:20:41;101857.81;;;13.18;100.00
62418;BME280;48456;54.242;10.280;2023-05-24T07:23:08;101858.72;;;13.23;100.00
62418;BME280;48456;54.242;10.280;2023-05-24T07:25:35;101864.03;;;13.32;100.00
62418;BME280;48456;54.242;10.280;2023-05-24T07:28:01;101858.72;;;13.28;100.00
62418;BME280;48456;54.242;10.280;2023-05-24T07:30:27;101864.91;;;13.22;100.00
62418;BME280;48456;54.242;10.280;2023-05-24T07:32:58;101865.75;;;13.04;100.00
62418;BME280;48456;54.242;10.280;2023-05-24T07:35:25;101875.47;;;12.95;100.00
62418;BME280;48456;54.242;10.280;2023-05-24T07:37:51;101879.00;;;12.90;100.00
62418;BME280;48456;54.242;10.280;2023-05-24T07:40:17;101878.06;;;12.81;100.00
62418;BME280;48456;54.242;10.280;2023-05-24T07:42:44;101879.84;;;12.76;100.00
62418;BME280;48456;54.242;10.280;2023-05-24T07:45:12;101884.25;;;12.79;100.00
62418;BME280;48456;54.242;10.280;2023-05-24T07:47:39;101878.97;;;12.83;100.00
62418;BME280;48456;54.242;10.280;2023-05-24T07:50:05;101881.66;;;12.90;100.00
62418;BME280;48456;54.242;10.280;2023-05-24T07:52:32;101896.72;;;12.97;100.00
62418;BME280;48456;54.242;10.280;2023-05-24T07:54:58;101894.09;;;13.05;100.00
62418;BME280;48456;54.242;10.280;2023-05-24T07:57:25;101894.13;;;13.19;100.00
62418;BME280;48456;54.242;10.280;2023-05-24T07:59:51;101890.59;;;13.17;100.00
62418;BME280;48456;54.242;10.280;2023-05-24T08:02:17;101891.50;;;13.30;100.00
62418;BME280;48456;54.242;10.280;2023-05-24T08:04:44;101893.28;;;13.46;100.00
62418;BME280;48456;54.242;10.280;2023-05-24T08:07:11;101893.34;;;13.60;100.00
62418;BME280;48456;54.242;10.280;2023-05-24T08:09:37;101895.09;;;13.74;100.00
62418;BME280;48456;54.242;10.280;2023-05-24T08:12:04;101899.50;;;14.11;100.00
62418;BME280;48456;54.242;10.280;2023-05-24T08:14:31;101889.72;;;14.30;100.00
62418;BME280;48456;54.242;10.280;2023-05-24T08:16:57;101893.25;;;14.37;100.00
62418;BME280;48456;54.242;10.280;2023-05-24T08:19:26;101886.13;;;14.51;100.00
62418;BME280;48456;54.242;10.280;2023-05-24T08:21:55;101890.56;;;14.46;100.00
62418;BME280;48456;54.242;10.280;2023-05-24T08:24:22;101890.63;;;14.34;100.00
62418;BME280;48456;54.242;10.280;2023-05-24T08:26:49;101888.84;;;14.26;100.00
62418;BME280;48456;54.242;10.280;2023-05-24T08:29:16;101887.03;;;14.46;100.00
62418;BME280;48456;54.242;10.280;2023-05-24T08:31:43;101891.44;;;14.53;100.00
62418;BME280;48456;54.242;10.280;2023-05-24T08:34:10;101889.69;;;14.49;100.00
62418;BME280;48456;54.242;10.280;2023-05-24T08:36:37;101894.03;;;14.65;100.00
62418;BME280;48456;54.242;10.280;2023-05-24T08:39:04;101891.31;;;14.90;100.00
62418;BME280;48456;54.242;10.280;2023-05-24T08:41:30;101896.59;;;15.00;100.00
62418;BME280;48456;54.242;10.280;2023-05-24T08:44:03;101890.25;;;15.16;100.00
62418;BME280;48456;54.242;10.280;2023-05-24T08:46:31;101900.06;;;15.11;100.00
62418;BME280;48456;54.242;10.280;2023-05-24T08:48:59;101913.38;;;15.16;100.00
62418;BME280;48456;54.242;10.280;2023-05-24T08:51:29;101912.59;;;14.93;100.00
62418;BME280;48456;54.242;10.280;2023-05-24T08:53:56;101913.53;;;14.74;100.00
62418;BME280;48456;54.242;10.280;2023-05-24T08:56:23;101920.66;;;14.78;100.00
62418;BME280;48456;54.242;10.280;2023-05-24T08:58:50;101916.19;;;14.89;100.00
62418;BME280;48456;54.242;10.280;2023-05-24T09:01:17;101921.44;;;15.00;100.00
62418;BME280;48456;54.242;10.280;2023-05-24T09:03:46;101928.47;;;15.22;100.00
62418;BME280;48456;54.242;10.280;2023-05-24T09:06:15;101921.22;;;15.42;100.00
62418;BME280;48456;54.242;10.280;2023-05-24T09:08:42;101928.91;;;15.81;100.00
62418;BME280;48456;54.242;10.280;2023-05-24T09:11:09;101921.81;;;15.83;100.00
62418;BME280;48456;54.242;10.280;2023-05-24T09:13:36;101927.06;;;15.97;100.00
62418;BME280;48456;54.242;10.280;2023-05-24T09:16:04;101932.53;;;15.76;100.00
62418;BME280;48456;54.242;10.280;2023-05-24T09:18:31;101933.50;;;15.64;100.00
62418;BME280;48456;54.242;10.280;2023-05-24T09:20:57;101937.16;;;15.49;100.00
62418;BME280;48456;54.242;10.280;2023-05-24T09:23:24;101947.06;;;15.29;100.00
62418;BME280;48456;54.242;10.280;2023-05-24T09:25:51;101947.06;;;15.32;100.00
62418;BME280;48456;54.242;10.280;2023-05-24T09:28:18;101934.34;;;15.70;100.00
62418;BME280;48456;54.242;10.280;2023-05-24T09:30:57;101927.91;;;16.04;100.00
62418;BME280;48456;54.242;10.280;2023-05-24T09:33:27;101938.97;;;16.52;100.00
62418;BME280;48456;54.242;10.280;2023-05-24T09:35:56;101940.16;;;17.01;100.00
62418;BME280;48456;54.242;10.280;2023-05-24T09:38:23;101942.66;;;17.18;100.00
62418;BME280;48456;54.242;10.280;2023-05-24T09:43:26;101942.28;;;16.72;100.00
62418;BME280;48456;54.242;10.280;2023-05-24T09:45:55;101940.94;;;16.35;100.00
62418;BME280;48456;54.242;10.280;2023-05-24T09:48:23;101935.84;;;16.07;100.00
62418;BME280;48456;54.242;10.280;2023-05-24T09:51:02;101938.84;;;15.62;100.00
62418;BME280;48456;54.242;10.280;2023-05-24T09:53:29;101943.28;;;15.63;100.00
62418;BME280;48456;54.242;10.280;2023-05-24T09:55:57;101943.28;;;15.65;100.00
62418;BME280;48456;54.242;10.280;2023-05-24T09:58:27;101940.50;;;15.79;100.00
62418;BME280;48456;54.242;10.280;2023-05-24T10:01:01;101937.59;;;16.11;100.00
62418;BME280;48456;54.242;10.280;2023-05-24T10:03:28;101932.81;;;16.46;100.00
62418;BME280;48456;54.242;10.280;2023-05-24T10:05:55;101933.44;;;16.69;100.00
62418;BME280;48456;54.242;10.280;2023-05-24T10:08:21;101939.06;;;17.19;100.00
62418;BME280;48456;54.242;10.280;2023-05-24T10:10:48;101927.09;;;17.47;100.00
62418;BME280;48456;54.242;10.280;2023-05-24T10:13:15;101939.84;;;17.27;100.00
62418;BME280;48456;54.242;10.280;2023-05-24T10:15:43;101942.13;;;16.88;100.00
62418;BME280;48456;54.242;10.280;2023-05-24T10:18:10;101942.44;;;16.60;100.00
62418;BME280;48456;54.242;10.280;2023-05-24T10:20:39;101932.72;;;16.53;100.00
62418;BME280;48456;54.242;10.280;2023-05-24T10:23:10;101936.00;;;16.76;100.00
62418;BME280;48456;54.242;10.280;2023-05-24T10:25:41;101935.25;;;17.37;100.00
62418;BME280;48456;54.242;10.280;2023-05-24T10:28:10;101936.47;;;18.28;100.00
62418;BME280;48456;54.242;10.280;2023-05-24T10:33:05;101941.38;;;17.46;100.00
62418;BME280;48456;54.242;10.280;2023-05-24T10:35:33;101943.72;;;17.03;100.00
62418;BME280;48456;54.242;10.280;2023-05-24T10:38:06;101941.75;;;16.41;100.00
62418;BME280;48456;54.242;10.280;2023-05-24T10:40:40;101938.22;;;16.40;100.00
62418;BME280;48456;54.242;10.280;2023-05-24T10:43:07;101938.13;;;16.46;100.00
62418;BME280;48456;54.242;10.280;2023-05-24T10:45:37;101946.81;;;17.38;100.00
62418;BME280;48456;54.242;10.280;2023-05-24T10:50:41;101948.81;;;19.25;100.00
62418;BME280;48456;54.242;10.280;2023-05-24T10:53:14;101951.88;;;18.62;100.00
62418;BME280;48456;54.242;10.280;2023-05-24T10:56:15;101951.91;;;18.15;100.00
62418;BME280;48456;54.242;10.280;2023-05-24T10:58:44;101948.28;;;17.59;100.00
62418;BME280;48456;54.242;10.280;2023-05-24T11:01:30;101957.03;;;17.08;100.00
62418;BME280;48456;54.242;10.280;2023-05-24T11:04:16;101948.84;;;17.82;100.00
62418;BME280;48456;54.242;10.280;2023-05-24T11:06:44;101954.16;;;19.27;100.00
62418;BME280;48456;54.242;10.280;2023-05-24T11:09:11;101952.53;;;20.97;100.00
62418;BME280;48456;54.242;10.280;2023-05-24T11:11:37;101958.56;;;22.43;100.00
62418;BME280;48456;54.242;10.280;2023-05-24T11:14:04;101954.41;;;23.08;100.00
62418;BME280;48456;54.242;10.280;2023-05-24T11:16:31;101954.94;;;22.94;100.00
62418;BME280;48456;54.242;10.280;2023-05-24T11:18:58;101956.22;;;22.83;100.00
62418;BME280;48456;54.242;10.280;2023-05-24T11:21:29;101954.25;;;22.65;100.00
62418;BME280;48456;54.242;10.280;2023-05-24T11:23:56;101950.00;;;22.05;100.00
62418;BME280;48456;54.242;10.280;2023-05-24T11:26:23;101952.75;;;22.30;100.00
62418;BME280;48456;54.242;10.280;2023-05-24T11:28:49;101954.28;;;22.87;100.00
62418;BME280;48456;54.242;10.280;2023-05-24T11:31:16;101957.69;;;23.40;100.00
62418;BME280;48456;54.242;10.280;2023-05-24T11:33:42;101948.31;;;23.71;94.21
62418;BME280;48456;54.242;10.280;2023-05-24T11:36:09;101949.00;;;24.20;100.00
62418;BME280;48456;54.242;10.280;2023-05-24T11:38:35;101949.78;;;24.83;91.82
62418;BME280;48456;54.242;10.280;2023-05-24T11:41:02;101961.69;;;24.99;98.46
62418;BME280;48456;54.242;10.280;2023-05-24T11:43:29;101967.38;;;23.89;100.00
62418;BME280;48456;54.242;10.280;2023-05-24T11:45:56;101972.22;;;23.12;100.00
62418;BME280;48456;54.242;10.280;2023-05-24T11:48:22;101969.91;;;23.49;100.00
62418;BME280;48456;54.242;10.280;2023-05-24T11:50:49;101964.16;;;22.88;100.00
62418;BME280;48456;54.242;10.280;2023-05-24T11:53:18;101957.50;;;21.39;100.00
62418;BME280;48456;54.242;10.280;2023-05-24T11:55:45;101956.13;;;21.83;100.00
62418;BME280;48456;54.242;10.280;2023-05-24T11:58:35;101965.84;;;22.67;100.00
62418;BME280;48456;54.242;10.280;2023-05-24T12:00:58;101975.63;;;23.41;100.00
62418;BME280;48456;54.242;10.280;2023-05-24T12:03:24;101965.91;;;24.25;90.20
62418;BME280;48456;54.242;10.280;2023-05-24T12:05:51;101963.09;;;25.08;86.90
62418;BME280;48456;54.242;10.280;2023-05-24T12:08:21;101974.47;;;25.73;80.73
62418;BME280;48456;54.242;10.280;2023-05-24T12:10:48;101974.78;;;25.09;88.33
62418;BME280;48456;54.242;10.280;2023-05-24T12:13:22;101977.00;;;23.05;94.96
62418;BME280;48456;54.242;10.280;2023-05-24T12:15:53;101979.63;;;21.19;100.00
62418;BME280;48456;54.242;10.280;2023-05-24T12:18:22;101982.31;;;20.89;100.00
62418;BME280;48456;54.242;10.280;2023-05-24T12:20:49;101971.31;;;21.57;100.00
62418;BME280;48456;54.242;10.280;2023-05-24T12:23:17;101970.38;;;23.14;100.00
62418;BME280;48456;54.242;10.280;2023-05-24T12:25:43;101975.72;;;23.62;100.00
62418;BME280;48456;54.242;10.280;2023-05-24T12:28:11;101965.41;;;24.57;93.21
62418;BME280;48456;54.242;10.280;2023-05-24T12:30:37;101971.66;;;25.18;82.33
62418;BME280;48456;54.242;10.280;2023-05-24T12:33:10;101971.16;;;25.10;83.32
62418;BME280;48456;54.242;10.280;2023-05-24T12:35:36;101973.09;;;25.81;68.59
62418;BME280;48456;54.242;10.280;2023-05-24T12:38:07;101979.13;;;26.24;74.64
62418;BME280;48456;54.242;10.280;2023-05-24T12:40:33;101982.34;;;26.32;74.70
62418;BME280;48456;54.242;10.280;2023-05-24T12:43:01;101983.09;;;25.99;66.43
62418;BME280;48456;54.242;10.280;2023-05-24T12:45:27;101972.81;;;26.05;62.89
62418;BME280;48456;54.242;10.280;2023-05-24T12:47:54;101980.75;;;25.54;73.33
62418;BME280;48456;54.242;10.280;2023-05-24T12:50:21;101969.00;;;24.36;71.39
62418;BME280;48456;54.242;10.280;2023-05-24T12:52:48;101975.25;;;24.78;76.58
62418;BME280;48456;54.242;10.280;2023-05-24T12:55:21;101973.66;;;25.51;69.65
62418;BME280;48456;54.242;10.280;2023-05-24T12:57:47;101973.44;;;25.56;75.60
62418;BME280;48456;54.242;10.280;2023-05-24T13:00:22;101977.78;;;25.02;74.06